Woensdrecht, Nederland

11:43 AM CEST op 02 april 2015 (GMT +0200)
Woensdrecht Air Base | | Change Station
CLOSE
Current Station
Luchthaven
Location: Woensdrecht,
Geometrische hoogte: 56 ft
Nabije weerstations

Hoogte 56 ft 51.45 °N, 4.34 °E | Updated 18 minutes ago

Clear
Helder
45 °F
Voelt als 37 °F
N
18
Wind Variabel Wind van NNW
Gusts 30 mijl/u

Vandaag
Hoog -- | Laag -- °F
--% Kans op neerslag
Gisteren
Hoog -- | Laag -- °F
Precip. -- inches
7:16 AM 8:16 PM
Wassende maan, 96% visible
Druk 30.04 inches
Zicht 6.2 mijlen
Wolken
Gevoelstemperatuur 37 °F
Dauwpunt 28 °F
Vochtigheid 53%
Neerslag 0.00 inches
Dikte sneeuw Niet beschikbaar.
UV Niet beschikbaar.
Pollen Niet beschikbaar.
Luchtkwaliteit Niet beschikbaar.
Flu Activity Niet beschikbaar.
METAR EHWO 020925Z AUTO 33016G26KT 9999 NCD 07/M02 Q1017 BLU 32012KT 9999 SCT030 TEMPO 32012G22KT

More Conditions Fewer Conditions

Druk 30.04 inches
Zicht 6.2 mijlen
Wolken
Gevoelstemperatuur 37 °F
Dauwpunt 28 °F
Vochtigheid 53%
Neerslag 0.00 inches
Dikte sneeuw Niet beschikbaar.
UV Niet beschikbaar.
Pollen Niet beschikbaar.
Luchtkwaliteit Niet beschikbaar.
Flu Activity Niet beschikbaar.
METAR EHWO 020925Z AUTO 33016G26KT 9999 NCD 07/M02 Q1017 BLU 32012KT 9999 SCT030 TEMPO 32012G22KT

More Conditions Fewer Conditions

10-Day Weather Forecast

Almanac

Astronomie

Apr. 02, 2015 Opkomst Ondergang
Werkelijke tijd
Burgerlijke schemering
Nautische schemering
Astronomische schemering
Maan
Golflengte van het zichtbare licht
Daglengte
Tomorrow will be .
, % of the Moon is Illuminated

Extremen vandaag

Country Highs Country Lows

Community

WunderPhotos

Upload Photos

1,810,216 foto’s ge-upload!

WunderBlogs® & News

Nearby

Luchtkwaliteit

  Luchtkwaliteit LK-index Verontreinigende stof
Not available.

Dikte sneeuw

Station Depth Geometrische hoogte

Aardbevingen

Stad Distance Mag. Time & Date
Minimum magnitude displayed is 2.5.

Watertemperatuur langs de kust

Plaats Temperatuur

Stations

Nabije weerstations

Locatie station Temp. Gevoelstemperatuur Dauwpunt Vochtigheid Wind Precip. Hoogte Geactualiseerd Type